Time;durP1;ratioP1;P1;durP2;ratioP2;P2;SDS_P1;SDS_P2;PMS_P1;PMS_P2;Temp;Humidity;BMP_temperature;BMP_pressure;BME280_temperature;BME280_humidity;BME280_pressure;Samples;Min_cycle;Max_cycle;Signal;HPM_P1;HPM_P2
2022/01/18 00:00:56;;;;;;;7.10;6.50;;;;;;;23.06;25.65;95152.00;7300470;19;137835;-51
2022/01/18 00:03:22;;;;;;;7.53;7.00;;;;;;;23.05;25.63;95156.56;7299936;19;137018;-51
2022/01/18 00:05:50;;;;;;;7.53;6.93;;;;;;;23.06;25.65;95158.13;7288131;19;139119;-51
2022/01/18 00:08:18;;;;;;;7.10;6.50;;;;;;;23.08;25.92;95141.84;7300376;19;137296;-51
2022/01/18 00:10:45;;;;;;;7.33;6.83;;;;;;;23.06;26.02;95144.00;7299367;19;137542;-51
2022/01/18 00:18:29;;;;;;;6.73;6.23;;;;;;;23.06;26.15;95168.78;7288981;19;137344;-51
2022/01/18 00:23:34;;;;;;;7.00;6.50;;;;;;;23.06;26.24;95166.13;7300636;19;136878;-49
2022/01/18 00:26:00;;;;;;;6.53;6.03;;;;;;;23.06;26.21;95173.31;7297706;19;137717;-51
2022/01/18 00:28:29;;;;;;;6.50;6.00;;;;;;;23.06;25.57;95170.66;7287045;19;138021;-51
2022/01/18 00:33:26;;;;;;;5.90;5.50;;;;;;;23.06;25.92;95152.78;7300040;19;137495;-50
2022/01/18 00:35:59;;;;;;;6.40;5.97;;;;;;;23.06;26.09;95150.13;7297978;19;138036;-51
2022/01/18 00:38:46;;;;;;;6.20;5.70;;;;;;;23.06;26.28;95133.34;7286950;19;137542;-51
2022/01/18 00:41:12;;;;;;;5.70;5.30;;;;;;;23.06;26.10;95128.03;7299423;19;139188;-51
2022/01/18 00:43:39;;;;;;;5.70;5.30;;;;;;;23.04;25.91;95131.00;7299975;19;137856;-50
2022/01/18 00:46:05;;;;;;;5.70;5.30;;;;;;;23.06;26.27;95136.81;7298203;19;136967;-49
2022/01/18 00:48:35;;;;;;;5.70;5.30;;;;;;;23.04;25.58;95139.00;7296433;19;139129;-51
2022/01/18 00:51:03;;;;;;;6.10;5.60;;;;;;;23.05;26.37;95164.53;7287714;19;139350;-50
2022/01/18 00:53:31;;;;;;;5.77;5.27;;;;;;;23.05;25.89;95161.88;7299401;19;136827;-51
2022/01/18 00:56:21;;;;;;;6.20;5.70;;;;;;;23.05;25.83;95177.88;7296701;19;138187;-50
2022/01/18 00:58:48;;;;;;;5.10;4.70;;;;;;;23.03;26.00;95189.94;7299297;19;138797;-51
2022/01/18 01:01:15;;;;;;;5.73;5.33;;;;;;;23.04;25.75;95192.28;7285869;19;138197;-51
2022/01/18 01:03:40;;;;;;;5.90;5.43;;;;;;;23.04;25.63;95210.94;7299170;19;136698;-51
2022/01/18 01:06:07;;;;;;;5.40;5.00;;;;;;;23.04;26.32;95226.94;7297366;19;137132;-51
2022/01/18 01:08:36;;;;;;;5.60;5.20;;;;;;;23.05;25.72;95222.38;7298560;19;138036;-49
2022/01/18 01:11:04;;;;;;;5.10;4.80;;;;;;;23.04;26.16;95232.25;7298534;19;137001;-51
2022/01/18 01:13:30;;;;;;;5.13;4.73;;;;;;;23.05;26.19;95262.38;7285775;19;137080;-51
2022/01/18 01:16:10;;;;;;;5.00;4.70;;;;;;;23.05;26.23;95263.16;7297683;19;137335;-49
2022/01/18 01:34:58;;;;;;;5.10;4.70;;;;;;;23.01;25.71;95288.81;7284476;19;138013;-51
2022/01/18 01:45:36;;;;;;;5.10;4.80;;;;;;;23.01;26.28;95322.66;7283491;19;137879;-50
2022/01/18 01:48:03;;;;;;;4.53;4.20;;;;;;;23.01;26.45;95325.31;7295824;19;137472;-51
2022/01/18 01:50:42;;;;;;;4.60;4.20;;;;;;;22.99;26.11;95340.81;7297242;19;137425;-51
2022/01/18 01:53:08;;;;;;;4.53;4.23;;;;;;;22.98;25.80;95340.03;7297003;19;138235;-51
2022/01/18 01:55:34;;;;;;;5.13;4.73;;;;;;;22.99;26.13;95332.81;7280417;19;136816;-51
2022/01/18 01:57:59;;;;;;;4.47;4.13;;;;;;;23.00;25.77;95345.06;7297018;19;136943;-51
2022/01/18 02:00:25;;;;;;;4.27;3.97;;;;;;;22.99;26.29;95340.81;7296723;19;137183;-51
2022/01/18 02:02:51;;;;;;;4.87;4.33;;;;;;;22.98;26.40;95342.69;7296973;19;137093;-51
2022/01/18 02:05:17;;;;;;;4.93;4.53;;;;;;;22.98;25.79;95340.03;7297417;19;136918;-51
2022/01/18 02:07:42;;;;;;;5.17;4.77;;;;;;;22.99;25.76;95328.28;7283819;19;137018;-51
2022/01/18 02:10:10;;;;;;;5.00;4.60;;;;;;;22.99;26.34;95330.16;7296442;19;139799;-51
2022/01/18 02:12:36;;;;;;;4.77;4.40;;;;;;;22.99;25.86;95328.28;7298091;19;137915;-51
2022/01/18 02:15:11;;;;;;;5.47;5.07;;;;;;;22.98;25.89;95337.38;7297169;19;137014;-50
2022/01/18 02:23:37;;;;;;;4.83;4.43;;;;;;;23.00;26.17;95374.38;7295405;19;138488;-51
2022/01/18 02:26:03;;;;;;;5.20;4.80;;;;;;;22.99;25.86;95365.59;7295604;19;136986;-51
2022/01/18 02:28:29;;;;;;;5.03;4.60;;;;;;;23.00;26.22;95358.38;7283822;19;137991;-51
2022/01/18 02:30:55;;;;;;;5.33;4.93;;;;;;;22.98;25.70;95368.56;7296392;19;137571;-51
2022/01/18 02:33:21;;;;;;;5.50;5.10;;;;;;;22.99;26.12;95364.78;7297752;19;138305;-49
2022/01/18 02:35:48;;;;;;;4.67;4.33;;;;;;;22.98;26.31;95373.88;7296458;19;137212;-49
2022/01/18 02:38:14;;;;;;;5.50;5.10;;;;;;;22.98;25.96;95365.88;7296065;19;137427;-50
2022/01/18 02:40:41;;;;;;;5.03;4.73;;;;;;;22.97;26.22;95375.75;7283569;19;136885;-53
2022/01/18 02:45:55;;;;;;;5.20;4.80;;;;;;;22.96;25.61;95376.84;7294381;19;137471;-50
2022/01/18 02:48:21;;;;;;;4.87;4.40;;;;;;;22.96;25.81;95382.19;7295674;19;138328;-51
2022/01/18 02:50:47;;;;;;;4.77;4.40;;;;;;;22.96;26.24;95376.84;7283541;19;136942;-51
2022/01/18 02:53:16;;;;;;;4.97;4.57;;;;;;;22.96;25.62;95379.50;7295135;19;137281;-50
2022/01/18 02:55:42;;;;;;;5.27;4.87;;;;;;;22.95;26.06;95396.59;7293219;19;136923;-48
2022/01/18 02:58:10;;;;;;;5.10;4.70;;;;;;;22.96;25.77;95392.84;7295591;19;137246;-50
2022/01/18 03:03:10;;;;;;;5.13;4.73;;;;;;;22.96;25.68;95408.81;7292588;19;137421;-50
2022/01/18 03:03:35;;;;;;;5.10;4.77;;;;;;;22.97;26.10;95402.41;7290661;19;138118;-50
2022/01/18 03:06:01;;;;;;;5.57;5.10;;;;;;;22.99;26.15;95428.75;7295232;19;136830;-50
2022/01/18 03:08:28;;;;;;;5.70;5.30;;;;;;;22.97;25.80;95409.59;7295335;19;137128;-50
2022/01/18 03:10:54;;;;;;;5.10;4.80;;;;;;;22.96;25.71;95427.47;7295685;19;137518;-51
2022/01/18 03:13:20;;;;;;;5.40;5.00;;;;;;;22.95;25.74;95420.56;7282254;19;137057;-50
2022/01/18 03:15:46;;;;;;;5.43;5.00;;;;;;;22.94;25.28;95424.31;7295007;19;137597;-50
2022/01/18 03:18:12;;;;;;;5.80;5.40;;;;;;;22.95;25.52;95423.22;7295829;19;138002;-50
2022/01/18 03:20:39;;;;;;;5.23;4.83;;;;;;;22.94;25.60;95431.53;7296044;19;138217;-50
2022/01/18 03:23:10;;;;;;;5.10;4.70;;;;;;;22.94;25.64;95442.97;7288844;19;137153;-50
2022/01/18 03:28:05;;;;;;;5.23;4.83;;;;;;;22.94;25.48;95458.97;7294715;19;137274;-51
2022/01/18 03:30:34;;;;;;;5.40;5.00;;;;;;;22.95;25.28;95467.75;7293969;19;137524;-49
2022/01/18 03:33:00;;;;;;;4.57;4.27;;;;;;;22.94;25.93;95477.59;7295014;19;138110;-50
2022/01/18 03:35:26;;;;;;;5.67;5.17;;;;;;;22.94;25.77;95498.94;7283778;19;138271;-51
2022/01/18 03:37:52;;;;;;;4.87;4.47;;;;;;;22.95;25.80;95492.50;7293732;19;137383;-50
2022/01/18 03:40:18;;;;;;;4.57;4.27;;;;;;;22.96;25.33;95504.75;7294415;19;138975;-50
2022/01/18 03:42:45;;;;;;;4.83;4.53;;;;;;;22.96;25.47;95507.41;7295289;19;138136;-50
2022/01/18 03:45:17;;;;;;;5.57;5.17;;;;;;;22.97;25.29;95506.31;7282723;19;136806;-50
2022/01/18 03:47:45;;;;;;;5.20;4.80;;;;;;;22.98;25.28;95512.44;7290954;19;138503;-50
2022/01/18 03:50:12;;;;;;;5.17;4.77;;;;;;;22.96;25.24;95510.06;7293810;19;137255;-49
2022/01/18 03:52:40;;;;;;;4.97;4.57;;;;;;;22.98;25.40;95499.13;7292646;19;137184;-50
2022/01/18 03:55:08;;;;;;;4.50;4.20;;;;;;;22.97;25.09;95506.31;7291381;19;137021;-50
2022/01/18 03:57:33;;;;;;;4.90;4.50;;;;;;;22.97;25.11;95509.00;7280872;19;137524;-49
2022/01/18 03:59:59;;;;;;;5.30;4.80;;;;;;;22.96;25.19;95518.06;7292181;19;137169;-50
2022/01/18 04:02:24;;;;;;;4.63;4.33;;;;;;;22.96;25.18;95528.72;7293056;19;137736;-50
2022/01/18 04:04:50;;;;;;;4.90;4.50;;;;;;;22.98;25.66;95544.44;7293830;19;137096;-50
2022/01/18 04:07:16;;;;;;;5.33;4.93;;;;;;;22.96;25.17;95550.06;7278100;19;137496;-50
2022/01/18 04:09:42;;;;;;;5.00;4.60;;;;;;;22.98;25.54;95541.75;7292358;19;137817;-50
2022/01/18 04:12:08;;;;;;;4.50;4.20;;;;;;;22.97;25.33;95556.97;7299738;19;137730;-51
2022/01/18 04:14:33;;;;;;;4.27;3.97;;;;;;;22.97;25.72;95559.63;7298861;19;137761;-51
2022/01/18 04:17:16;;;;;;;4.67;4.37;;;;;;;22.97;25.71;95564.94;7300076;19;138110;-50
2022/01/18 04:27:50;;;;;;;3.63;3.00;;;;;;;22.71;25.92;95609.84;7297790;19;137541;-49
2022/01/18 04:30:15;;;;;;;4.97;3.00;;;;;;;22.70;25.17;95610.91;7283642;19;138290;-52
2022/01/18 04:32:41;;;;;;;2.63;2.43;;;;;;;22.69;25.77;95613.88;7299676;19;137628;-52
2022/01/18 04:35:07;;;;;;;2.60;2.40;;;;;;;22.65;25.42;95615.50;7300295;19;137384;-52
2022/01/18 04:37:32;;;;;;;2.83;2.50;;;;;;;22.44;25.67;95628.31;7299549;19;140637;-49
2022/01/18 04:39:59;;;;;;;5.80;1.93;;;;;;;22.33;24.52;95640.97;7298806;19;137207;-51
2022/01/18 04:42:42;;;;;;;3.10;1.57;;;;;;;22.15;23.66;95647.84;7286758;19;137987;-51
2022/01/18 04:50:36;;;;;;;2.13;1.90;;;;;;;21.85;25.12;95650.84;7299989;19;137807;-52
2022/01/18 04:53:02;;;;;;;5.60;1.90;;;;;;;21.79;24.58;95662.59;7285046;19;137828;-52
2022/01/18 04:55:32;;;;;;;2.60;1.70;;;;;;;21.82;24.04;95664.66;7296957;19;138068;-52
2022/01/18 04:57:57;;;;;;;1.77;1.67;;;;;;;21.77;23.66;95670.84;7295046;19;137661;-61
2022/01/18 05:00:24;;;;;;;1.83;1.73;;;;;;;21.73;23.17;95672.50;7295269;19;138796;-61
2022/01/18 05:02:50;;;;;;;5.30;1.67;;;;;;;21.69;23.07;95657.38;7278734;19;141953;-59
2022/01/18 05:05:24;;;;;;;3.10;1.47;;;;;;;21.85;23.43;95674.78;7287730;19;137785;-61
2022/01/18 05:07:54;;;;;;;2.50;1.73;;;;;;;22.05;23.77;95665.81;7286122;19;137191;-60
2022/01/18 05:10:25;;;;;;;2.23;1.60;;;;;;;22.23;23.94;95672.25;7289126;19;138028;-59
2022/01/18 05:12:53;;;;;;;5.10;2.80;;;;;;;22.36;25.19;95674.22;7290617;19;137813;-61
2022/01/18 05:23:08;;;;;;;3.70;2.30;;;;;;;22.68;25.19;95700.19;7293940;19;137809;-60
2022/01/18 05:25:35;;;;;;;5.00;2.17;;;;;;;22.76;24.86;95715.53;7284304;19;137048;-61
2022/01/18 05:28:02;;;;;;;5.43;1.90;;;;;;;22.81;24.85;95707.44;7295616;19;137482;-61
2022/01/18 05:30:30;;;;;;;2.00;1.80;;;;;;;22.87;24.25;95701.03;7297024;19;137194;-61
2022/01/18 05:32:57;;;;;;;2.40;2.00;;;;;;;22.92;24.00;95716.13;7298005;19;136678;-60
2022/01/18 05:35:23;;;;;;;2.53;2.23;;;;;;;22.94;23.81;95720.09;7284664;19;137391;-61
2022/01/18 05:37:49;;;;;;;2.17;1.97;;;;;;;22.98;23.79;95738.97;7297439;19;139917;-61
2022/01/18 05:40:17;;;;;;;3.83;2.23;;;;;;;23.01;24.17;95757.03;7298203;19;137387;-61
2022/01/18 05:42:43;;;;;;;2.40;2.20;;;;;;;23.02;23.61;95770.09;7296956;19;137407;-61
2022/01/18 05:45:09;;;;;;;2.20;2.00;;;;;;;23.03;23.62;95763.69;7293399;19;137987;-61
2022/01/18 05:47:36;;;;;;;2.13;1.80;;;;;;;23.04;23.96;95770.59;7279524;19;138680;-61
2022/01/18 05:50:03;;;;;;;3.50;2.10;;;;;;;23.05;23.52;95766.84;7294184;19;137589;-61
2022/01/18 05:52:29;;;;;;;2.20;2.00;;;;;;;23.04;23.55;95767.94;7294737;19;137345;-61
2022/01/18 05:54:54;;;;;;;2.40;2.20;;;;;;;23.05;23.75;95766.84;7292884;19;137583;-61
2022/01/18 05:57:20;;;;;;;2.27;1.70;;;;;;;23.05;24.07;95768.72;7281794;19;138231;-61
2022/01/18 05:59:47;;;;;;;1.83;1.73;;;;;;;23.04;23.76;95773.28;7295677;19;138633;-61
2022/01/18 06:02:18;;;;;;;2.20;2.00;;;;;;;23.01;24.12;95773.84;7298061;19;137115;-61
2022/01/18 06:07:28;;;;;;;2.90;1.90;;;;;;;22.96;23.59;95776.56;7295851;19;137237;-61
2022/01/18 06:09:55;;;;;;;1.83;1.73;;;;;;;22.95;24.01;95768.84;7283202;19;137179;-62
2022/01/18 06:12:22;;;;;;;1.60;1.50;;;;;;;22.91;23.73;95771.31;7297165;19;137077;-61
2022/01/18 06:14:48;;;;;;;2.53;1.90;;;;;;;22.87;23.85;95772.97;7296331;19;137363;-61
2022/01/18 06:17:13;;;;;;;1.80;1.70;;;;;;;22.85;23.83;95777.00;7297162;19;137541;-61
2022/01/18 06:19:39;;;;;;;1.87;1.77;;;;;;;22.83;23.82;95771.13;7283718;19;137020;-62
2022/01/18 06:22:04;;;;;;;2.60;1.90;;;;;;;22.78;24.35;95767.44;7296196;19;136669;-61
2022/01/18 06:24:30;;;;;;;1.93;1.73;;;;;;;22.76;24.35;95784.78;7297207;19;137069;-61
2022/01/18 06:26:56;;;;;;;1.80;1.67;;;;;;;22.73;24.01;95777.38;7295300;19;137197;-61
2022/01/18 06:29:22;;;;;;;1.67;1.57;;;;;;;22.69;24.62;95779.81;7295417;19;137541;-61
2022/01/18 06:31:48;;;;;;;1.73;1.63;;;;;;;22.67;24.02;95791.81;7283546;19;138132;-61
2022/01/18 06:34:14;;;;;;;1.67;1.50;;;;;;;22.65;24.51;95783.31;7294141;19;136601;-61
2022/01/18 06:36:43;;;;;;;1.70;1.60;;;;;;;22.63;23.96;95788.13;7295722;19;136879;-62
2022/01/18 06:39:09;;;;;;;2.27;2.07;;;;;;;22.57;24.26;95786.63;7296638;19;137615;-61
2022/01/18 06:41:35;;;;;;;1.77;1.60;;;;;;;22.51;24.36;95785.88;7282362;19;136760;-61
2022/01/18 06:44:01;;;;;;;1.90;1.60;;;;;;;22.46;24.85;95786.72;7296387;19;138700;-61
2022/01/18 06:46:26;;;;;;;2.07;1.80;;;;;;;22.43;24.78;95794.47;7296563;19;137893;-61
2022/01/18 06:48:53;;;;;;;1.47;1.37;;;;;;;22.42;24.80;95784.91;7296765;19;138174;-62
2022/01/18 06:51:19;;;;;;;1.77;1.67;;;;;;;22.40;24.28;95771.09;7295287;19;137250;-61
2022/01/18 06:53:47;;;;;;;2.67;1.70;;;;;;;22.39;24.62;95782.81;7283884;19;139091;-62
2022/01/18 06:56:15;;;;;;;2.80;1.60;;;;;;;22.37;24.76;95791.09;7293450;19;137193;-61
2022/01/18 06:58:42;;;;;;;1.73;1.63;;;;;;;22.54;24.33;95803.16;7294434;19;137161;-61
2022/01/18 07:01:09;;;;;;;1.50;1.40;;;;;;;23.08;23.73;95816.91;7294163;19;139232;-61
2022/01/18 07:03:35;;;;;;;1.60;1.50;;;;;;;23.54;23.31;95818.16;7281979;19;136673;-61
2022/01/18 07:06:00;;;;;;;1.50;1.40;;;;;;;23.74;22.95;95827.78;7295051;19;136990;-62
2022/01/18 07:08:26;;;;;;;1.70;1.60;;;;;;;23.88;23.11;95833.97;7293191;19;138377;-62
2022/01/18 07:10:52;;;;;;;2.17;1.60;;;;;;;23.99;22.97;95843.38;7295627;19;136886;-62
2022/01/18 07:13:17;;;;;;;1.70;1.60;;;;;;;24.13;22.83;95843.44;7295067;19;137143;-61
2022/01/18 07:15:43;;;;;;;1.63;1.53;;;;;;;24.21;22.71;95856.13;7284014;19;140297;-61
2022/01/18 07:18:10;;;;;;;1.50;1.40;;;;;;;24.46;22.73;95862.91;7296095;19;137367;-62
2022/01/18 07:20:37;;;;;;;1.50;1.40;;;;;;;24.44;21.93;95859.75;7294295;19;137556;-61
2022/01/18 07:23:03;;;;;;;1.77;1.67;;;;;;;24.18;22.56;95854.00;7294910;19;137079;-62
2022/01/18 07:25:29;;;;;;;2.10;1.80;;;;;;;24.07;22.71;95858.75;7281944;19;137316;-61
2022/01/18 07:27:54;;;;;;;1.83;1.73;;;;;;;24.00;23.08;95859.09;7291451;19;137143;-62
2022/01/18 07:30:20;;;;;;;1.80;1.70;;;;;;;23.96;23.08;95860.78;7295446;19;136870;-62
2022/01/18 07:32:46;;;;;;;1.70;1.60;;;;;;;23.94;22.74;95864.81;7294874;19;137623;-61
2022/01/18 07:35:12;;;;;;;1.50;1.40;;;;;;;23.95;23.43;95887.75;7294586;19;137658;-61
2022/01/18 07:37:38;;;;;;;1.70;1.37;;;;;;;23.94;23.32;95864.81;7281453;19;138215;-62
2022/01/18 07:40:05;;;;;;;2.00;1.60;;;;;;;23.94;23.44;95864.81;7295092;19;136646;-61
2022/01/18 07:42:31;;;;;;;2.93;1.53;;;;;;;23.93;23.12;95873.91;7293233;19;137247;-61
2022/01/18 07:44:57;;;;;;;2.00;1.70;;;;;;;23.91;23.00;95882.22;7295040;19;136990;-61
2022/01/18 07:47:23;;;;;;;1.70;1.53;;;;;;;23.92;23.20;95877.66;7289317;19;137748;-61
2022/01/18 07:49:49;;;;;;;1.67;1.47;;;;;;;23.92;23.24;95870.44;7299167;19;138056;-62
2022/01/18 07:52:15;;;;;;;1.77;1.67;;;;;;;23.92;23.05;95888.34;7300938;19;136973;-61
2022/01/18 07:54:41;;;;;;;1.73;1.63;;;;;;;23.92;23.46;95883.00;7299083;19;137298;-60
2022/01/18 07:57:07;;;;;;;1.93;1.83;;;;;;;23.92;23.37;95878.47;7301166;19;137554;-60
2022/01/18 07:59:32;;;;;;;1.80;1.70;;;;;;;23.93;23.41;95905.94;7286609;19;136819;-60
2022/01/18 08:01:58;;;;;;;1.80;1.70;;;;;;;23.95;23.37;95893.09;7300930;19;136783;-61
2022/01/18 08:04:23;;;;;;;1.70;1.60;;;;;;;23.92;23.64;95896.34;7300012;19;137031;-61
2022/01/18 08:06:49;;;;;;;1.70;1.60;;;;;;;23.92;23.68;95897.13;7300598;19;137546;-61
2022/01/18 08:09:18;;;;;;;2.10;2.00;;;;;;;23.91;23.55;95900.88;7300772;19;137312;-60
2022/01/18 08:11:45;;;;;;;1.70;1.60;;;;;;;23.91;23.13;95903.56;7290017;19;137272;-61
2022/01/18 08:14:13;;;;;;;2.13;1.77;;;;;;;23.85;23.49;95899.38;7300754;19;137277;-61
2022/01/18 08:17:00;;;;;;;1.97;1.80;;;;;;;23.82;23.64;95907.94;7300334;19;137765;-61
2022/01/18 08:19:28;;;;;;;2.20;2.10;;;;;;;23.85;23.67;95917.25;7299560;19;136976;-62
2022/01/18 08:21:54;;;;;;;2.07;1.93;;;;;;;23.85;23.89;95925.25;7285939;19;136849;-61
2022/01/18 08:24:20;;;;;;;2.40;2.30;;;;;;;23.82;23.48;95915.16;7300165;19;137312;-61
2022/01/18 08:26:46;;;;;;;2.30;2.10;;;;;;;23.83;23.53;95935.44;7298812;19;138054;-62
2022/01/18 08:29:12;;;;;;;2.17;2.07;;;;;;;23.81;23.34;95941.06;7299766;19;137131;-61
2022/01/18 08:31:39;;;;;;;1.83;1.73;;;;;;;23.80;23.92;95936.00;7287596;19;138366;-62
2022/01/18 08:34:04;;;;;;;2.10;2.00;;;;;;;23.80;23.96;95938.69;7298770;19;137442;-64
2022/01/18 08:36:30;;;;;;;1.90;1.80;;;;;;;23.78;23.46;95949.66;7300823;19;137528;-62
2022/01/18 08:38:57;;;;;;;2.43;2.23;;;;;;;23.77;23.59;95947.28;7300292;19;136583;-62
2022/01/18 08:41:22;;;;;;;2.37;2.17;;;;;;;23.76;23.58;95954.47;7299983;19;137434;-62
2022/01/18 08:43:49;;;;;;;2.53;2.33;;;;;;;23.74;23.60;95950.50;7286258;19;138090;-62
2022/01/18 08:46:16;;;;;;;2.60;2.40;;;;;;;23.73;23.87;95955.06;7299682;19;137594;-62
2022/01/18 08:48:42;;;;;;;2.40;2.30;;;;;;;23.74;23.49;95953.19;7296499;19;136919;-62
2022/01/18 08:51:08;;;;;;;2.50;2.30;;;;;;;23.72;23.49;95953.47;7299851;19;136929;-61
2022/01/18 08:53:35;;;;;;;2.37;2.27;;;;;;;23.70;24.09;95948.44;7283025;19;137401;-61
2022/01/18 08:56:01;;;;;;;1.87;1.77;;;;;;;23.68;24.06;95965.78;7296248;19;137927;-62
2022/01/18 08:58:27;;;;;;;2.47;2.27;;;;;;;23.65;23.54;95975.16;7297610;19;137835;-61
2022/01/18 09:00:53;;;;;;;2.70;2.50;;;;;;;23.64;23.80;95984.25;7300038;19;137350;-61
2022/01/18 09:03:19;;;;;;;2.40;2.20;;;;;;;23.62;23.96;95964.25;7298212;19;136978;-61
2022/01/18 09:05:45;;;;;;;2.70;2.50;;;;;;;23.56;23.56;95968.84;7285657;19;137080;-61
2022/01/18 09:08:12;;;;;;;2.33;2.13;;;;;;;23.56;24.09;95960.06;7296992;19;136895;-61
2022/01/18 09:10:39;;;;;;;2.50;2.30;;;;;;;23.55;24.16;95964.59;7297912;19;136903;-61
2022/01/18 09:13:05;;;;;;;2.17;2.07;;;;;;;23.54;23.75;95959.53;7296879;19;137254;-62
2022/01/18 09:15:31;;;;;;;2.67;2.47;;;;;;;23.51;24.14;95976.09;7288376;19;137935;-61
2022/01/18 09:17:56;;;;;;;2.50;2.30;;;;;;;23.51;24.14;95976.09;7295665;19;137058;-62
2022/01/18 09:20:24;;;;;;;2.67;2.47;;;;;;;23.50;24.04;95967.31;7298633;19;136614;-61
2022/01/18 09:22:52;;;;;;;3.30;2.53;;;;;;;23.50;24.26;95966.50;7298074;19;137595;-61
2022/01/18 09:25:23;;;;;;;1.93;1.83;;;;;;;23.50;24.26;95969.19;7297560;19;138100;-61
2022/01/18 09:27:49;;;;;;;1.93;1.83;;;;;;;23.48;24.02;95966.78;7282829;19;137244;-62
2022/01/18 09:30:15;;;;;;;2.30;2.20;;;;;;;23.48;24.03;95974.81;7298873;19;137463;-62
2022/01/18 09:32:42;;;;;;;2.47;2.27;;;;;;;23.49;23.93;95963.06;7298505;19;137898;-61
2022/01/18 09:35:08;;;;;;;2.43;2.27;;;;;;;23.52;24.18;95961.72;7296449;19;137715;-61
2022/01/18 09:37:34;;;;;;;2.53;2.33;;;;;;;23.49;23.62;95957.72;7286037;19;136958;-60
2022/01/18 09:40:00;;;;;;;2.07;1.97;;;;;;;23.50;23.78;95951.31;7297325;19;137024;-61
2022/01/18 09:42:39;;;;;;;2.33;2.13;;;;;;;23.49;23.62;95957.72;7297346;19;138047;-61
2022/01/18 09:45:07;;;;;;;2.60;2.40;;;;;;;23.52;24.26;95954.50;7298516;19;138427;-61
2022/01/18 09:47:34;;;;;;;2.90;2.70;;;;;;;23.53;23.57;95955.28;7295451;19;137206;-61
2022/01/18 09:50:00;;;;;;;2.20;2.10;;;;;;;23.53;24.02;95945.41;7283886;19;137024;-61
2022/01/18 09:52:25;;;;;;;2.30;2.20;;;;;;;23.57;24.25;95935.00;7298133;19;137073;-61
2022/01/18 09:54:51;;;;;;;2.50;2.30;;;;;;;23.56;23.88;95928.84;7294383;19;137380;-60
2022/01/18 09:57:17;;;;;;;2.60;2.40;;;;;;;23.59;23.87;95932.84;7297939;19;137325;-61
2022/01/18 09:59:42;;;;;;;2.60;2.40;;;;;;;23.59;24.13;95924.81;7285807;19;140563;-61
2022/01/18 10:02:10;;;;;;;2.10;2.00;;;;;;;23.64;23.90;95930.88;7297268;19;137584;-61
2022/01/18 10:04:41;;;;;;;2.50;2.30;;;;;;;23.65;23.75;95940.47;7295874;19;138496;-60
2022/01/18 10:07:06;;;;;;;2.60;2.40;;;;;;;23.65;23.83;95937.81;7296687;19;136983;-61
2022/01/18 10:09:32;;;;;;;2.13;2.03;;;;;;;23.66;23.68;95942.06;7297104;19;137009;-61
2022/01/18 10:12:16;;;;;;;2.50;2.30;;;;;;;23.68;23.96;95937.25;7282660;19;138296;-61
2022/01/18 10:14:53;;;;;;;2.00;1.90;;;;;;;23.69;23.64;95930.03;7297832;19;138023;-61
2022/01/18 10:17:40;;;;;;;2.50;2.30;;;;;;;23.69;23.49;95924.69;7296357;19;136927;-61
2022/01/18 10:20:09;;;;;;;2.03;1.93;;;;;;;23.69;23.83;95928.16;7297027;19;136735;-61
2022/01/18 10:22:44;;;;;;;2.50;2.30;;;;;;;23.67;23.85;95930.31;7282713;19;137452;-61
2022/01/18 10:25:13;;;;;;;2.00;1.90;;;;;;;23.67;23.71;95924.97;7295121;19;137762;-62
2022/01/18 10:27:39;;;;;;;1.90;1.80;;;;;;;23.65;23.88;95927.13;7295327;19;137589;-62
2022/01/18 10:30:14;;;;;;;2.10;2.00;;;;;;;23.66;24.20;95926.03;7296500;19;137587;-62
2022/01/18 10:32:41;;;;;;;2.97;2.00;;;;;;;23.66;24.11;95928.72;7283611;19;137507;-61
2022/01/18 10:35:09;;;;;;;2.30;2.10;;;;;;;23.65;23.65;95921.78;7296194;19;138978;-62
2022/01/18 10:37:40;;;;;;;2.40;2.20;;;;;;;23.64;24.20;95917.53;7296182;19;136908;-61
2022/01/18 10:40:17;;;;;;;2.40;2.20;;;;;;;23.62;23.81;95917.03;7296273;19;136635;-61
2022/01/18 10:42:49;;;;;;;2.00;1.90;;;;;;;23.62;24.38;95898.38;7296619;19;136951;-62
2022/01/18 10:45:23;;;;;;;2.00;1.90;;;;;;;23.62;24.43;95895.69;7283155;19;138191;-61
2022/01/18 10:47:56;;;;;;;2.30;2.10;;;;;;;23.60;24.55;95903.19;7293819;19;136923;-62
2022/01/18 10:50:22;;;;;;;2.37;2.20;;;;;;;23.59;24.41;95895.47;7296551;19;138102;-62
2022/01/18 10:52:49;;;;;;;2.37;2.17;;;;;;;23.57;23.89;95885.09;7296425;19;138180;-62
2022/01/18 10:55:18;;;;;;;2.57;2.37;;;;;;;23.56;24.52;95899.50;7277985;19;137840;-62
2022/01/18 10:57:45;;;;;;;1.97;1.87;;;;;;;23.56;24.54;95899.50;7295820;19;138046;-62
2022/01/18 11:00:12;;;;;;;1.90;1.80;;;;;;;23.55;23.86;95884.56;7296188;19;136736;-62
2022/01/18 11:02:42;;;;;;;2.00;1.90;;;;;;;23.54;24.17;95888.31;7294856;19;137330;-62
2022/01/18 11:05:18;;;;;;;1.90;1.80;;;;;;;23.51;24.63;95883.53;7295403;19;138236;-62
2022/01/18 11:07:45;;;;;;;1.80;1.70;;;;;;;23.50;24.17;95881.16;7280729;19;137128;-61
2022/01/18 11:10:12;;;;;;;1.87;1.77;;;;;;;23.49;24.43;95884.91;7294614;19;136931;-61
2022/01/18 11:12:45;;;;;;;2.30;2.10;;;;;;;23.46;24.12;95874.81;7293868;19;138430;-62
2022/01/18 11:15:16;;;;;;;2.33;2.13;;;;;;;23.44;24.07;95888.44;7295861;19;137022;-62
2022/01/18 11:17:49;;;;;;;1.90;1.80;;;;;;;23.43;24.09;95884.19;7280940;19;136741;-62
2022/01/18 11:20:15;;;;;;;2.23;2.07;;;;;;;23.45;24.66;95897.22;7293874;19;137308;-62
2022/01/18 11:22:42;;;;;;;2.10;1.90;;;;;;;23.41;24.43;95878.34;7294989;19;137389;-60
2022/01/18 11:25:09;;;;;;;2.03;1.93;;;;;;;23.39;24.20;95886.66;7293434;19;137119;-62
2022/01/18 11:27:36;;;;;;;1.90;1.80;;;;;;;23.38;24.61;95892.28;7292990;19;137596;-61
2022/01/18 11:30:06;;;;;;;1.87;1.77;;;;;;;23.35;24.20;95885.63;7285132;19;137182;-62
2022/01/18 11:32:32;;;;;;;2.13;2.00;;;;;;;23.33;24.24;95893.09;7294725;19;137414;-61
2022/01/18 11:35:02;;;;;;;2.00;1.90;;;;;;;23.31;24.37;95886.47;7293067;19;137258;-62
2022/01/18 11:37:37;;;;;;;2.00;1.90;;;;;;;23.32;24.18;95880.06;7294522;19;137755;-62
2022/01/18 11:40:08;;;;;;;2.30;2.20;;;;;;;23.31;24.41;95883.81;7280735;19;137127;-61
2022/01/18 11:42:52;;;;;;;1.93;1.83;;;;;;;23.29;24.22;95868.09;7292859;19;137653;-62
2022/01/18 11:45:39;;;;;;;2.10;1.90;;;;;;;23.29;24.21;95868.09;7294773;19;139027;-62
2022/01/18 11:48:13;;;;;;;3.40;1.70;;;;;;;23.28;24.82;95879.84;7292322;19;137009;-61
2022/01/18 11:51:08;;;;;;;1.90;1.80;;;;;;;23.26;24.77;95883.88;7280975;19;137737;-61
2022/01/18 11:53:55;;;;;;;1.87;1.77;;;;;;;23.24;24.45;95886.84;7292808;19;137583;-61
2022/01/18 11:56:35;;;;;;;2.10;1.90;;;;;;;23.22;24.72;95902.31;7291197;19;138258;-61
2022/01/18 11:59:27;;;;;;;1.73;1.63;;;;;;;23.21;24.65;95898.06;7294100;19;137498;-61
2022/01/18 12:01:59;;;;;;;2.20;1.97;;;;;;;23.21;24.24;95897.28;7279995;19;137097;-61
2022/01/18 12:07:07;;;;;;;2.43;2.23;;;;;;;23.19;24.65;95904.78;7293985;19;136923;-62
2022/01/18 12:09:37;;;;;;;2.00;1.80;;;;;;;23.17;24.38;95915.69;7292967;19;137284;-61
2022/01/18 12:12:04;;;;;;;2.07;1.97;;;;;;;23.17;24.90;95893.56;7283509;19;139370;-61
2022/01/18 12:14:33;;;;;;;2.30;2.10;;;;;;;23.16;24.38;95892.78;7293253;19;137294;-61
2022/01/18 12:17:15;;;;;;;1.70;1.60;;;;;;;23.16;25.05;95870.66;7293583;19;137701;-62
2022/01/18 12:19:46;;;;;;;2.30;2.10;;;;;;;23.15;24.91;95883.19;7293542;19;137524;-61
2022/01/18 12:22:12;;;;;;;1.83;1.70;;;;;;;23.16;24.48;95892.78;7293391;19;136936;-60
2022/01/18 12:24:40;;;;;;;2.33;1.60;;;;;;;23.16;24.41;95898.13;7277949;19;137401;-61
2022/01/18 12:27:26;;;;;;;1.70;1.60;;;;;;;23.17;24.77;95877.59;7292951;19;138571;-61
2022/01/18 12:30:40;;;;;;;1.83;1.73;;;;;;;23.16;24.51;95871.47;7293057;19;136905;-61
2022/01/18 12:33:16;;;;;;;2.03;1.93;;;;;;;23.16;24.61;95878.66;7295613;19;136907;-62
2022/01/18 12:35:42;;;;;;;1.90;1.80;;;;;;;23.15;24.95;95893.06;7286998;19;138043;-61
2022/01/18 12:38:10;;;;;;;2.00;1.83;;;;;;;23.11;25.03;95888.31;7298911;19;137403;-62
2022/01/18 12:40:43;;;;;;;2.17;2.00;;;;;;;23.11;24.81;95890.97;7299985;19;137613;-62
2022/01/18 12:45:39;;;;;;;2.17;2.00;;;;;;;23.07;24.35;95908.63;7287337;19;139138;-61